Airfield :
LOGIN :

Register | Disclaimer

   EN    FR    IT 

 










Legend :    VFR   Marginal VFR   IFR   Intensive IFR   Very Intensive IFR
Visi :
Ceiling :
>= 8 km
>= 3000ft
5 to 8 km
1000 to 3000 ft
1500m to 5 km
500 to 1000 ft
800 to 1500m
200 to 500 ft
< 800m
< 200 ft
Symbols :   Thunderstorms  Fog  Heavy snow  Heavy precipitations  Wind > 20 kt
SIGMETs :     Misc.  Thunderstorms  Icing  Turbulence  Mountain Waves  Volcanic Ashes






- Airport Elevation : 0 ft


ENQA - Troll A Platform

CURRENT METAR :
  • 200220Z AUTO 22034KT 2000NDV -RA OVC005/// 08/07 Q1031 W06/S5

EXPIRED METARs :
  • 200150Z AUTO 22034KT 3300NDV DZ OVC005/// 07/07 Q1031 W06/S5
  • 200120Z AUTO 22035KT 2600NDV -DZ OVC005/// 07/06 Q1031 W06/S5
  • 200050Z AUTO 21036KT 2300NDV -DZ BR OVC005/// 07/06 Q1031 W06/S5
  • 200020Z AUTO 21036KT 1400NDV -RA OVC006/// 07/06 Q1031 W06/S5
  • 192350Z AUTO 21037KT 1500NDV -RA OVC006/// 07/06 Q1031 RERA W06/S5

TAF N/A



MET'MAP, your aeronautical weather chart ! - Copyright ORBIFLY December 2007 - Disclaimer

ORBIFLY MET'MAP TEAM :

Programming & Development : Alexandra Zaïnal
Concept & original design : Baudouin d'Aumeries
Assistance for programming : Marc-Olivier Méhu
Technical & hardware support : Manuel Goepfert

Contact : metmap@orbifly.com




SOURCES & CREDITS :

   NOAA